createdAt,value
2024-04-12T00:02:14.340Z,7.95
2024-04-12T00:04:43.011Z,8.82
2024-04-12T00:07:19.559Z,8.05
2024-04-12T00:09:55.430Z,8.80
2024-04-12T00:12:30.891Z,8.48
2024-04-12T00:15:06.124Z,8.70
2024-04-12T00:17:36.767Z,8.45
2024-04-12T00:20:06.026Z,8.73
2024-04-12T00:22:39.737Z,7.60
2024-04-12T00:25:07.363Z,7.53
2024-04-12T00:27:38.842Z,8.15
2024-04-12T00:30:09.610Z,9.23
2024-04-12T00:32:44.526Z,8.65
2024-04-12T00:35:13.274Z,8.63
2024-04-12T00:37:55.013Z,8.43
2024-04-12T00:40:23.094Z,9.48
2024-04-12T00:42:58.889Z,8.40
2024-04-12T00:45:41.209Z,8.93
2024-04-12T00:48:12.336Z,8.75
2024-04-12T00:50:42.549Z,8.53
2024-04-12T00:53:15.145Z,9.57
2024-04-12T00:55:42.639Z,8.48
2024-04-12T00:58:14.997Z,8.75
2024-04-12T01:00:48.634Z,8.68
2024-04-12T01:03:19.831Z,9.32
2024-04-12T01:05:48.392Z,8.10
2024-04-12T01:08:18.489Z,8.45
2024-04-12T01:10:46.093Z,9.23
2024-04-12T01:13:17.272Z,9.35
2024-04-12T01:15:44.837Z,10.27
2024-04-12T01:18:16.690Z,10.00
2024-04-12T01:20:45.285Z,9.93
2024-04-12T01:23:18.443Z,9.35
2024-04-12T01:25:46.895Z,9.07
2024-04-12T01:28:18.024Z,9.75
2024-04-12T01:30:47.983Z,9.27
2024-04-12T01:33:19.092Z,10.38
2024-04-12T01:35:47.193Z,9.17
2024-04-12T01:38:21.629Z,9.68
2024-04-12T01:40:58.563Z,9.38
2024-04-12T01:43:33.953Z,9.25
2024-04-12T01:46:01.647Z,9.43
2024-04-12T01:48:35.008Z,8.38
2024-04-12T01:51:04.192Z,9.20
2024-04-12T01:53:39.023Z,10.95
2024-04-12T01:56:07.072Z,10.77
2024-04-12T01:58:38.475Z,10.23
2024-04-12T02:01:07.787Z,9.88
2024-04-12T02:03:39.104Z,10.35
2024-04-12T02:06:07.006Z,10.55
2024-04-12T02:08:37.362Z,10.30
2024-04-12T02:11:07.438Z,10.93
2024-04-12T02:13:41.920Z,10.48
2024-04-12T02:16:12.405Z,10.43
2024-04-12T02:18:46.049Z,10.50
2024-04-12T02:21:13.824Z,10.02
2024-04-12T02:23:45.557Z,10.57
2024-04-12T02:28:44.541Z,11.05
2024-04-12T02:31:11.906Z,10.57
2024-04-12T02:33:44.085Z,10.73
2024-04-12T02:36:17.597Z,11.55
2024-04-12T02:38:51.963Z,11.40
2024-04-12T02:41:21.607Z,10.73
2024-04-12T02:43:53.723Z,10.75
2024-04-12T02:46:22.258Z,11.98
2024-04-12T02:48:53.126Z,10.98
2024-04-12T02:51:24.264Z,11.73
2024-04-12T02:53:59.715Z,11.27
2024-04-12T02:56:27.689Z,10.48
2024-04-12T02:58:58.975Z,10.90
2024-04-12T03:01:27.549Z,10.57
2024-04-12T03:04:00.883Z,11.45
2024-04-12T03:06:34.027Z,11.88
2024-04-12T03:09:06.851Z,12.15
2024-04-12T03:11:36.415Z,11.02
2024-04-12T03:14:16.475Z,12.32
2024-04-12T03:16:45.092Z,12.07
2024-04-12T03:19:17.224Z,11.75
2024-04-12T03:21:45.333Z,11.25
2024-04-12T03:24:15.465Z,12.05
2024-04-12T03:26:45.323Z,11.93
2024-04-12T03:29:18.180Z,12.13
2024-04-12T03:31:48.476Z,11.73
2024-04-12T03:34:19.011Z,12.52
2024-04-12T03:36:58.328Z,13.45
2024-04-12T03:39:31.871Z,11.48
2024-04-12T03:42:06.390Z,12.93
2024-04-12T03:44:39.491Z,13.25
2024-04-12T03:47:11.160Z,13.00
2024-04-12T03:49:45.225Z,12.63
2024-04-12T03:52:15.788Z,12.68
2024-04-12T03:54:48.820Z,13.00
2024-04-12T03:57:17.424Z,13.80
2024-04-12T03:59:48.098Z,13.35
2024-04-12T04:02:20.535Z,13.07
2024-04-12T04:04:51.141Z,12.20
2024-04-12T04:07:20.256Z,12.82
2024-04-12T04:09:51.334Z,14.88
2024-04-12T04:12:19.429Z,13.97
2024-04-12T04:14:53.404Z,14.50
2024-04-12T04:17:32.396Z,13.10
2024-04-12T04:20:08.614Z,13.32
2024-04-12T04:22:43.218Z,13.23
2024-04-12T04:25:15.278Z,14.27
2024-04-12T04:27:42.688Z,14.07
2024-04-12T04:30:19.475Z,13.85
2024-04-12T04:32:47.508Z,14.02
2024-04-12T04:35:17.734Z,13.52
2024-04-12T04:37:46.276Z,12.68
2024-04-12T04:40:19.111Z,13.43
2024-04-12T04:42:49.364Z,13.73
2024-04-12T04:45:23.705Z,14.27
2024-04-12T04:47:52.576Z,14.40
2024-04-12T04:50:22.910Z,13.52
2024-04-12T04:52:52.762Z,14.82
2024-04-12T04:55:23.030Z,13.68
2024-04-12T04:57:51.292Z,14.00
2024-04-12T05:00:24.540Z,14.60
2024-04-12T05:02:54.980Z,13.23
2024-04-12T05:05:29.817Z,14.20
2024-04-12T05:07:59.796Z,13.45
2024-04-12T05:10:36.506Z,14.80
2024-04-12T05:13:08.267Z,12.80
2024-04-12T05:15:54.624Z,13.73
2024-04-12T05:18:22.349Z,14.20
2024-04-12T05:20:52.709Z,13.57
2024-04-12T05:23:21.893Z,12.05
2024-04-12T05:25:52.755Z,13.55
2024-04-12T05:28:23.548Z,13.13
2024-04-12T05:30:56.399Z,12.32
2024-04-12T05:33:26.197Z,12.65
2024-04-12T05:35:56.614Z,12.27
2024-04-12T05:38:26.042Z,12.77
2024-04-12T05:40:58.850Z,12.05
2024-04-12T05:43:26.830Z,12.98
2024-04-12T05:45:58.887Z,13.48
2024-04-12T05:48:26.787Z,11.45
2024-04-12T05:50:59.628Z,13.45
2024-04-12T05:53:32.923Z,12.02
2024-04-12T05:56:20.888Z,12.43
2024-04-12T05:58:53.384Z,10.77
2024-04-12T06:01:25.651Z,11.00
2024-04-12T06:03:57.553Z,10.25
2024-04-12T06:06:25.691Z,11.75
2024-04-12T06:08:59.992Z,11.43
2024-04-12T06:11:27.602Z,12.02
2024-04-12T06:14:03.159Z,10.73
2024-04-12T06:16:30.824Z,12.13
2024-04-12T06:19:03.795Z,12.98
2024-04-12T06:21:32.999Z,10.70
2024-04-12T06:24:10.991Z,11.70
2024-04-12T06:26:41.778Z,11.73
2024-04-12T06:29:26.009Z,12.18
2024-04-12T06:31:57.448Z,11.77
2024-04-12T06:34:27.945Z,12.43
2024-04-12T06:36:58.676Z,13.02
2024-04-12T06:39:30.261Z,13.23
2024-04-12T06:41:58.982Z,12.68
2024-04-12T06:44:31.736Z,11.70
2024-04-12T06:47:00.065Z,12.65
2024-04-12T06:49:31.311Z,12.75
2024-04-12T06:52:10.895Z,11.48
2024-04-12T06:54:46.521Z,12.23
2024-04-12T06:57:19.828Z,12.10
2024-04-12T06:59:55.415Z,10.63
2024-04-12T07:02:25.860Z,12.75
2024-04-12T07:04:59.919Z,13.43
2024-04-12T07:07:30.284Z,12.25
2024-04-12T07:10:11.571Z,12.23
2024-04-12T07:12:39.858Z,12.60
2024-04-12T07:15:12.185Z,12.23
2024-04-12T07:17:40.986Z,12.38
2024-04-12T07:20:15.704Z,12.93
2024-04-12T07:22:43.419Z,12.00
2024-04-12T07:25:17.254Z,11.80
2024-04-12T07:27:49.468Z,11.10
2024-04-12T07:30:22.195Z,10.32
2024-04-12T07:32:51.850Z,11.73
2024-04-12T07:35:30.193Z,10.60
2024-04-12T07:38:03.734Z,12.40
2024-04-12T07:40:37.387Z,11.10
2024-04-12T07:43:11.402Z,11.68
2024-04-12T07:45:44.290Z,12.00
2024-04-12T07:48:29.179Z,12.45
2024-04-12T07:51:03.536Z,11.73
2024-04-12T07:53:36.282Z,13.02
2024-04-12T07:56:16.335Z,11.93
2024-04-12T07:58:44.703Z,11.73
2024-04-12T08:01:19.825Z,11.48
2024-04-12T08:03:52.623Z,10.15
2024-04-12T08:06:38.579Z,9.98
2024-04-12T08:09:23.134Z,10.13
2024-04-12T08:12:00.498Z,9.60
2024-04-12T08:14:29.086Z,9.40
2024-04-12T08:17:02.654Z,8.48
2024-04-12T08:19:40.455Z,9.35
2024-04-12T08:22:19.663Z,8.65
2024-04-12T08:24:51.020Z,8.52
2024-04-12T08:27:26.014Z,9.43
2024-04-12T08:29:57.186Z,9.77
2024-04-12T08:32:33.661Z,8.82
2024-04-12T08:35:08.550Z,9.32
2024-04-12T08:37:41.237Z,8.63
2024-04-12T08:40:11.911Z,8.18
2024-04-12T08:42:43.606Z,8.07
2024-04-12T08:45:20.525Z,9.13
2024-04-12T08:47:57.652Z,8.40
2024-04-12T08:50:33.022Z,9.07
2024-04-12T08:53:06.690Z,6.75
2024-04-12T08:55:36.533Z,8.50
2024-04-12T08:58:08.444Z,6.88
2024-04-12T09:00:37.753Z,8.45
2024-04-12T09:03:12.894Z,7.45
2024-04-12T09:05:43.652Z,7.65
2024-04-12T09:08:19.627Z,8.70
2024-04-12T09:10:48.004Z,8.50
2024-04-12T09:13:21.182Z,7.80
2024-04-12T09:15:51.853Z,7.95
2024-04-12T09:18:28.691Z,8.07
2024-04-12T09:21:04.201Z,8.10
2024-04-12T09:23:38.227Z,7.68
2024-04-12T09:26:23.810Z,7.07
2024-04-12T09:29:03.518Z,8.18
2024-04-12T09:31:50.814Z,7.43
2024-04-12T09:34:38.119Z,9.15
2024-04-12T09:37:31.247Z,7.35
2024-04-12T09:40:05.799Z,6.93
2024-04-12T09:43:01.878Z,7.47
2024-04-12T09:45:47.321Z,6.68
2024-04-12T09:48:37.804Z,7.50
2024-04-12T09:51:25.238Z,7.07
2024-04-12T09:54:10.945Z,7.38
2024-04-12T09:56:58.269Z,7.47
2024-04-12T09:59:47.963Z,7.70
2024-04-12T10:02:38.512Z,6.47
2024-04-12T10:05:29.127Z,7.80
2024-04-12T10:08:26.323Z,7.65
2024-04-12T10:11:13.521Z,6.68
2024-04-12T10:14:01.705Z,7.10
2024-04-12T10:16:56.225Z,6.25
2024-04-12T10:19:42.223Z,6.88
2024-04-12T10:22:30.608Z,5.75
2024-04-12T10:25:16.747Z,6.97
2024-04-12T10:28:08.309Z,6.40
2024-04-12T10:31:04.550Z,6.75
2024-04-12T10:34:01.951Z,6.70
2024-04-12T10:36:48.648Z,6.25
2024-04-12T10:39:19.226Z,6.53
2024-04-12T10:41:50.517Z,6.07
2024-04-12T10:44:20.851Z,5.90
2024-04-12T10:46:51.882Z,6.32
2024-04-12T10:49:22.789Z,5.43
2024-04-12T10:51:54.535Z,5.65
2024-04-12T10:54:25.432Z,5.80
2024-04-12T10:57:00.578Z,5.85
2024-04-12T10:59:29.635Z,6.13
2024-04-12T11:02:04.251Z,6.20
2024-04-12T11:04:51.973Z,5.65
2024-04-12T11:07:23.366Z,5.72
2024-04-12T11:09:59.349Z,5.68
2024-04-12T11:12:41.678Z,5.93
2024-04-12T11:15:34.199Z,4.63
2024-04-12T11:18:21.036Z,5.35
2024-04-12T11:21:22.552Z,5.50
2024-04-12T11:24:30.490Z,4.97
2024-04-12T11:27:16.633Z,5.55
2024-04-12T11:30:03.108Z,5.22
2024-04-12T11:32:36.158Z,4.18
2024-04-12T11:35:06.792Z,5.15
2024-04-12T11:37:45.008Z,4.80
2024-04-12T11:40:22.155Z,4.45
2024-04-12T11:42:50.752Z,4.88
2024-04-12T11:45:21.558Z,4.43
2024-04-12T11:47:49.276Z,5.13
2024-04-12T11:50:23.083Z,5.60
2024-04-12T11:52:56.007Z,5.05
2024-04-12T11:55:29.524Z,4.68
2024-04-12T11:57:57.390Z,4.53
2024-04-12T12:00:28.785Z,5.28
2024-04-12T12:05:30.246Z,5.20
2024-04-12T12:07:57.708Z,5.32
2024-04-12T12:10:27.782Z,4.43
2024-04-12T12:12:57.686Z,4.63
2024-04-12T12:15:27.880Z,4.22
2024-04-12T12:17:58.224Z,4.13
2024-04-12T12:20:31.887Z,4.47
2024-04-12T12:23:00.013Z,5.18
2024-04-12T12:25:30.626Z,4.40
2024-04-12T12:27:58.276Z,4.87
2024-04-12T12:30:29.968Z,4.63
2024-04-12T12:32:57.497Z,5.20
2024-04-12T12:35:27.597Z,4.47
2024-04-12T12:37:56.596Z,4.82
2024-04-12T12:40:26.845Z,4.35
2024-04-12T12:42:54.232Z,4.43
2024-04-12T12:45:25.978Z,4.35
2024-04-12T12:47:54.863Z,4.03
2024-04-12T12:50:25.704Z,4.57
2024-04-12T12:52:53.246Z,4.07
2024-04-12T12:55:25.262Z,4.07
2024-04-12T12:58:10.990Z,5.18
2024-04-12T13:00:45.954Z,4.95
2024-04-12T13:03:19.117Z,4.05
2024-04-12T13:05:50.282Z,4.75
2024-04-12T13:08:18.032Z,3.92
2024-04-12T13:10:50.502Z,4.28
2024-04-12T13:13:23.115Z,3.78
2024-04-12T13:15:59.735Z,4.07
2024-04-12T13:18:29.559Z,3.83
2024-04-12T13:21:00.857Z,4.10
2024-04-12T13:23:28.494Z,4.22
2024-04-12T13:25:59.397Z,4.40
2024-04-12T13:28:31.086Z,4.13
2024-04-12T13:31:01.211Z,4.10
2024-04-12T13:33:28.754Z,4.43
2024-04-12T13:36:01.473Z,4.10
2024-04-12T13:38:29.030Z,4.00
2024-04-12T13:41:02.432Z,4.05
2024-04-12T13:43:33.057Z,3.95
2024-04-12T13:46:19.301Z,4.13
2024-04-12T13:49:05.218Z,4.15
2024-04-12T13:51:35.485Z,4.78
2024-04-12T13:54:10.368Z,4.10
2024-04-12T13:56:39.138Z,5.13
2024-04-12T13:59:12.641Z,4.22
2024-04-12T14:01:41.698Z,4.78
2024-04-12T14:04:19.674Z,4.60
2024-04-12T14:06:48.769Z,4.60
2024-04-12T14:09:24.400Z,4.07
2024-04-12T14:11:53.096Z,3.47
2024-04-12T14:14:25.185Z,3.55
2024-04-12T14:16:53.537Z,3.83
2024-04-12T14:19:24.455Z,4.10
2024-04-12T14:21:53.343Z,4.82
2024-04-12T14:24:41.194Z,3.53
2024-04-12T14:27:12.683Z,3.25
2024-04-12T14:29:40.728Z,3.90
2024-04-12T14:32:13.079Z,4.10
2024-04-12T14:34:46.477Z,3.70
2024-04-12T14:37:19.943Z,4.40
2024-04-12T14:39:48.209Z,4.15
2024-04-12T14:42:22.123Z,3.83
2024-04-12T14:44:49.733Z,3.60
2024-04-12T14:47:19.900Z,3.80
2024-04-12T14:49:50.572Z,4.18
2024-04-12T14:52:17.968Z,4.33
2024-04-12T14:54:48.016Z,4.05
2024-04-12T14:57:15.534Z,4.28
2024-04-12T14:59:46.780Z,4.38
2024-04-12T15:02:14.480Z,4.00
2024-04-12T15:05:00.382Z,4.40
2024-04-12T15:07:46.232Z,4.05
2024-04-12T15:10:32.010Z,4.78
2024-04-12T15:13:17.965Z,4.63
2024-04-12T15:16:03.624Z,3.90
2024-04-12T15:18:49.518Z,4.82
2024-04-12T15:21:35.283Z,4.70
2024-04-12T15:24:21.199Z,4.78
2024-04-12T15:27:07.053Z,4.22
2024-04-12T15:29:52.567Z,4.63
2024-04-12T15:32:38.249Z,5.07
2024-04-12T15:35:24.220Z,5.60
2024-04-12T15:38:10.644Z,3.90
2024-04-12T15:40:56.368Z,4.63
2024-04-12T15:43:42.338Z,4.72
2024-04-12T15:46:28.838Z,4.93
2024-04-12T15:49:00.893Z,5.15
2024-04-12T15:51:28.810Z,4.70
2024-04-12T15:54:00.733Z,4.85
2024-04-12T15:56:47.013Z,5.28
2024-04-12T15:59:38.296Z,4.97
2024-04-12T16:02:24.372Z,4.45
2024-04-12T16:05:10.327Z,5.18
2024-04-12T16:07:56.321Z,4.90
2024-04-12T16:10:42.340Z,5.47
2024-04-12T16:13:12.662Z,5.35
2024-04-12T16:15:43.478Z,4.65
2024-04-12T16:18:13.596Z,6.47
2024-04-12T16:20:43.781Z,5.22
2024-04-12T16:23:14.255Z,5.32
2024-04-12T16:25:53.482Z,5.47
2024-04-12T16:28:27.335Z,4.68
2024-04-12T16:30:58.885Z,4.97
2024-04-12T16:33:28.702Z,4.80
2024-04-12T16:35:58.963Z,5.35
2024-04-12T16:38:27.233Z,5.03
2024-04-12T16:40:57.565Z,4.35
2024-04-12T16:43:25.008Z,5.60
2024-04-12T16:45:55.896Z,4.95
2024-04-12T16:48:23.472Z,4.88
2024-04-12T16:50:54.247Z,4.68
2024-04-12T16:53:21.711Z,4.87
2024-04-12T16:55:54.432Z,5.03
2024-04-12T16:58:21.819Z,5.35
2024-04-12T17:00:51.934Z,5.47
2024-04-12T17:03:19.420Z,5.65
2024-04-12T17:05:50.653Z,5.72
2024-04-12T17:08:18.102Z,5.45
2024-04-12T17:10:48.570Z,5.15
2024-04-12T17:13:16.409Z,4.75
2024-04-12T17:15:46.527Z,5.30
2024-04-12T17:18:14.329Z,5.38
2024-04-12T17:20:45.014Z,5.70
2024-04-12T17:23:14.887Z,6.10
2024-04-12T17:25:46.026Z,5.18
2024-04-12T17:28:13.744Z,5.60
2024-04-12T17:30:43.881Z,5.28
2024-04-12T17:33:11.296Z,5.70
2024-04-12T17:35:41.377Z,6.18
2024-04-12T17:38:08.732Z,5.90
2024-04-12T17:40:39.509Z,5.78
2024-04-12T17:43:07.027Z,5.87
2024-04-12T17:45:37.206Z,7.32
2024-04-12T17:48:04.986Z,6.95
2024-04-12T17:50:35.338Z,6.07
2024-04-12T17:53:02.876Z,5.95
2024-04-12T17:55:33.068Z,6.57
2024-04-12T17:58:05.539Z,7.20
2024-04-12T18:00:36.293Z,6.82
2024-04-12T18:03:04.193Z,6.53
2024-04-12T18:05:34.361Z,6.97
2024-04-12T18:08:01.849Z,7.13
2024-04-12T18:10:31.888Z,7.85
2024-04-12T18:12:59.248Z,6.78
2024-04-12T18:15:29.852Z,7.38
2024-04-12T18:17:57.521Z,6.97
2024-04-12T18:20:27.759Z,8.23
2024-04-12T18:22:55.176Z,8.23
2024-04-12T18:25:25.222Z,9.50
2024-04-12T18:27:52.635Z,8.38
2024-04-12T18:30:23.163Z,8.45
2024-04-12T18:32:50.608Z,8.23
2024-04-12T18:35:21.159Z,8.32
2024-04-12T18:38:06.857Z,8.95
2024-04-12T18:40:52.401Z,8.15
2024-04-12T18:43:38.179Z,7.57
2024-04-12T18:46:08.422Z,8.25
2024-04-12T18:48:38.850Z,6.85
2024-04-12T18:51:09.066Z,8.43
2024-04-12T18:53:39.155Z,8.13
2024-04-12T18:56:07.976Z,8.68
2024-04-12T18:58:40.160Z,8.07
2024-04-12T19:01:08.293Z,7.63
2024-04-12T19:03:38.502Z,9.40
2024-04-12T19:06:07.671Z,8.65
2024-04-12T19:08:37.775Z,8.77
2024-04-12T19:11:07.789Z,7.50
2024-04-12T19:13:38.472Z,6.90
2024-04-12T19:16:08.943Z,6.55
2024-04-12T19:18:39.164Z,7.18
2024-04-12T19:21:07.581Z,5.53
2024-04-12T19:23:37.800Z,6.05
2024-04-12T19:26:05.401Z,5.40
2024-04-12T19:28:36.028Z,5.75
2024-04-12T19:31:07.298Z,5.18
2024-04-12T19:33:38.085Z,6.13
2024-04-12T19:36:06.136Z,5.57
2024-04-12T19:38:38.209Z,5.78
2024-04-12T19:43:38.084Z,5.57
2024-04-12T19:46:05.621Z,5.77
2024-04-12T19:48:35.848Z,5.93
2024-04-12T19:51:06.475Z,5.35
2024-04-12T19:53:37.896Z,5.20
2024-04-12T19:56:07.286Z,5.75
2024-04-12T19:58:39.517Z,4.95
2024-04-12T20:01:12.044Z,4.72
2024-04-12T20:03:43.891Z,5.25
2024-04-12T20:08:42.282Z,11.73
2024-04-12T20:11:09.775Z,15.80
2024-04-12T20:13:40.140Z,14.85
2024-04-12T20:16:08.571Z,14.65
2024-04-12T20:18:43.164Z,14.35
2024-04-12T20:21:12.035Z,14.13
2024-04-12T20:23:42.327Z,14.05
2024-04-12T20:26:14.447Z,14.05
2024-04-12T20:28:56.018Z,14.30
2024-04-12T20:31:35.088Z,13.00
2024-04-12T20:34:25.482Z,13.75
2024-04-12T20:36:52.865Z,12.65
2024-04-12T20:39:24.394Z,12.23
2024-04-12T20:41:54.992Z,12.23
2024-04-12T20:44:30.665Z,12.95
2024-04-12T20:46:58.131Z,11.93
2024-04-12T20:49:29.456Z,12.63
2024-04-12T20:51:57.266Z,11.68
2024-04-12T20:54:27.555Z,11.82
2024-04-12T20:56:55.231Z,12.48
2024-04-12T20:59:25.362Z,12.38
2024-04-12T21:01:52.960Z,11.98
2024-04-12T21:04:23.597Z,11.20
2024-04-12T21:06:54.386Z,11.60
2024-04-12T21:09:24.933Z,12.03
2024-04-12T21:11:53.614Z,10.75
2024-04-12T21:14:24.036Z,10.80
2024-04-12T21:16:51.692Z,11.90
2024-04-12T21:19:21.811Z,12.27
2024-04-12T21:21:49.603Z,10.90
2024-04-12T21:24:19.783Z,11.02
2024-04-12T21:26:47.811Z,11.13
2024-04-12T21:29:18.666Z,10.30
2024-04-12T21:31:46.111Z,10.17
2024-04-12T21:34:16.370Z,10.88
2024-04-12T21:36:43.818Z,10.57
2024-04-12T21:39:14.825Z,11.18
2024-04-12T21:41:42.328Z,10.00
2024-04-12T21:44:12.869Z,10.23
2024-04-12T21:46:40.519Z,9.38
2024-04-12T21:49:10.629Z,9.57
2024-04-12T21:51:38.193Z,10.00
2024-04-12T21:54:08.359Z,8.75
2024-04-12T21:56:35.773Z,10.93
2024-04-12T21:59:05.845Z,9.85
2024-04-12T22:01:33.553Z,9.50
2024-04-12T22:04:06.274Z,9.38
2024-04-12T22:06:33.897Z,10.05
2024-04-12T22:09:04.121Z,8.75
2024-04-12T22:11:31.509Z,9.88
2024-04-12T22:14:01.581Z,9.00
2024-04-12T22:16:28.973Z,9.27
2024-04-12T22:18:59.325Z,9.40
2024-04-12T22:21:26.701Z,8.32
2024-04-12T22:23:56.810Z,8.88
2024-04-12T22:26:24.360Z,9.52
2024-04-12T22:28:54.733Z,8.63
2024-04-12T22:31:23.613Z,8.80
2024-04-12T22:33:55.780Z,9.45
2024-04-12T22:36:23.727Z,9.13
2024-04-12T22:38:54.419Z,8.35
2024-04-12T22:41:22.081Z,8.85
2024-04-12T22:43:52.937Z,10.00
2024-04-12T22:46:20.346Z,9.57
2024-04-12T22:48:50.477Z,9.77
2024-04-12T22:51:27.596Z,10.13
2024-04-12T22:53:59.104Z,8.88
2024-04-12T22:56:28.162Z,9.52
2024-04-12T22:59:00.884Z,11.15
2024-04-12T23:01:29.173Z,9.98
2024-04-12T23:04:02.445Z,10.05
2024-04-12T23:06:30.582Z,10.95
2024-04-12T23:09:02.146Z,10.35
2024-04-12T23:11:29.654Z,9.95
2024-04-12T23:13:59.900Z,10.70
2024-04-12T23:16:27.793Z,11.25
2024-04-12T23:18:57.987Z,11.15
2024-04-12T23:21:26.620Z,11.63
2024-04-12T23:23:56.745Z,11.50
2024-04-12T23:26:24.210Z,11.05
2024-04-12T23:28:54.237Z,9.57
2024-04-12T23:31:21.704Z,11.60
2024-04-12T23:33:51.767Z,10.35
2024-04-12T23:36:19.993Z,9.65
2024-04-12T23:38:50.208Z,11.25
2024-04-12T23:41:17.871Z,10.52
2024-04-12T23:43:48.444Z,10.27
2024-04-12T23:46:17.423Z,9.63
2024-04-12T23:48:47.734Z,9.77
2024-04-12T23:51:15.456Z,9.85
2024-04-12T23:53:45.687Z,10.02
2024-04-12T23:56:14.380Z,10.85
2024-04-12T23:58:44.556Z,10.98
